Time;durP1;ratioP1;P1;durP2;ratioP2;P2;SDS_P1;SDS_P2;PMS_P1;PMS_P2;Temp;Humidity;BMP_temperature;BMP_pressure;BME280_temperature;BME280_humidity;BME280_pressure;Samples;Min_cycle;Max_cycle;Signal;HPM_P1;HPM_P2
2023/09/23 00:02:25;;;;;;;21.30;13.45;;;;;;;19.87;80.26;99432.86;1835830;78;25374;-56
2023/09/23 00:04:53;;;;;;;21.87;12.73;;;;;;;19.81;80.69;99422.67;1835927;78;25439;-55
2023/09/23 00:07:21;;;;;;;22.35;13.68;;;;;;;19.76;81.33;99418.34;1835910;78;25603;-55
2023/09/23 00:09:48;;;;;;;22.27;13.62;;;;;;;19.73;81.61;99425.95;1835978;78;25595;-56
2023/09/23 00:12:15;;;;;;;19.52;13.35;;;;;;;19.70;82.20;99437.71;1835905;78;28009;-53
2023/09/23 00:14:42;;;;;;;21.40;13.78;;;;;;;19.63;82.35;99434.97;1835833;78;25612;-55
2023/09/23 00:17:08;;;;;;;18.95;13.88;;;;;;;19.56;82.57;99439.86;1835934;78;25466;-53
2023/09/23 00:19:35;;;;;;;24.77;14.90;;;;;;;19.49;83.45;99433.78;1835886;78;26170;-56
2023/09/23 00:22:02;;;;;;;23.25;15.43;;;;;;;19.43;83.55;99444.95;1810034;78;25623;-55
2023/09/23 00:24:28;;;;;;;26.57;15.30;;;;;;;19.36;83.88;99434.75;1835801;78;28420;-56
2023/09/23 00:26:59;;;;;;;23.92;14.33;;;;;;;19.31;83.76;99443.36;1835822;78;25629;-53
2023/09/23 00:29:26;;;;;;;22.75;14.28;;;;;;;19.27;84.43;99437.07;1835859;78;25647;-53
2023/09/23 00:31:54;;;;;;;25.10;14.55;;;;;;;19.23;84.63;99434.33;1810116;78;26006;-53
2023/09/23 00:34:23;;;;;;;24.63;14.80;;;;;;;19.19;84.98;99430.03;1836115;78;25371;-52
2023/09/23 00:36:52;;;;;;;;;;;;;;;19.13;85.10;99430.97;1838596;78;27428;-53
2023/09/23 00:39:19;;;;;;;;;;;;;;;19.09;85.66;99421.97;1838575;78;25592;-55
2023/09/23 00:41:45;;;;;;;22.82;14.07;;;;;;;19.04;85.93;99425.09;1835942;78;25600;-53
2023/09/23 00:44:11;;;;;;;21.82;14.95;;;;;;;18.99;85.96;99423.50;1835853;78;25674;-53
2023/09/23 00:46:41;;;;;;;20.88;14.13;;;;;;;18.98;86.09;99423.30;1835920;78;25610;-56
2023/09/23 00:49:08;;;;;;;22.13;15.40;;;;;;;18.96;86.22;99420.75;1836142;78;27421;-53
2023/09/23 00:51:37;;;;;;;20.60;14.58;;;;;;;18.93;85.96;99425.04;1835769;78;25403;-52
2023/09/23 00:54:10;;;;;;;16.73;14.45;;;;;;;18.93;86.14;99420.92;1836040;78;25582;-56
2023/09/23 00:56:36;;;;;;;25.10;14.15;;;;;;;18.92;86.16;99423.48;1836026;78;25615;-54
2023/09/23 00:59:06;;;;;;;21.30;14.95;;;;;;;18.91;86.67;99424.64;1836103;78;25441;-54
2023/09/23 01:01:33;;;;;;;21.25;14.63;;;;;;;18.89;86.71;99418.00;1836093;78;27474;-56
2023/09/23 01:03:59;;;;;;;19.82;16.02;;;;;;;18.86;86.65;99416.80;1835981;78;25565;-54
2023/09/23 01:06:28;;;;;;;25.70;15.83;;;;;;;18.84;87.13;99409.56;1836090;78;25390;-53
2023/09/23 01:08:57;;;;;;;20.55;14.70;;;;;;;18.81;87.00;99412.47;1836055;78;25458;-52
2023/09/23 01:11:22;;;;;;;22.57;14.73;;;;;;;18.81;86.88;99417.14;1836207;78;25544;-53
2023/09/23 01:13:52;;;;;;;22.52;15.05;;;;;;;18.77;86.97;99422.61;1836054;78;28120;-51
2023/09/23 01:16:19;;;;;;;22.48;14.70;;;;;;;18.75;87.01;99411.27;1836093;78;25569;-53
2023/09/23 01:18:46;;;;;;;21.02;14.90;;;;;;;18.71;87.28;99400.89;1836045;78;25667;-54
2023/09/23 01:21:12;;;;;;;18.87;14.63;;;;;;;18.70;87.50;99397.16;1836004;78;25612;-53
2023/09/23 01:23:39;;;;;;;17.50;14.50;;;;;;;18.65;87.70;99403.20;1835240;76;25531;-51
2023/09/23 01:26:05;;;;;;;21.10;15.68;;;;;;;18.61;87.48;99411.19;1805111;78;28183;-54
2023/09/23 01:28:33;;;;;;;19.73;14.75;;;;;;;18.59;88.01;99410.80;1830942;78;25377;-55
2023/09/23 01:31:01;;;;;;;20.72;14.10;;;;;;;18.55;88.03;99414.11;1830761;78;25559;-55
2023/09/23 01:33:28;;;;;;;20.77;15.28;;;;;;;18.52;88.03;99408.03;1831041;78;25502;-54
2023/09/23 01:36:02;;;;;;;21.62;14.78;;;;;;;18.50;88.10;99410.38;1830837;78;25439;-52
2023/09/23 01:38:25;;;;;;;20.32;14.20;;;;;;;18.47;88.29;99416.83;1831033;78;27505;-55
2023/09/23 01:40:54;;;;;;;23.92;14.87;;;;;;;18.45;88.18;99419.14;1830660;78;25603;-53
2023/09/23 01:43:20;;;;;;;24.82;14.00;;;;;;;18.40;88.52;99416.77;1831067;78;25376;-53
2023/09/23 01:45:46;;;;;;;21.02;15.28;;;;;;;18.39;89.13;99425.36;1830691;78;27704;-52
2023/09/23 01:48:12;;;;;;;22.30;14.35;;;;;;;18.34;89.14;99418.31;1831088;78;25407;-55
2023/09/23 01:50:39;;;;;;;18.65;14.30;;;;;;;18.29;89.34;99418.08;1830766;78;28026;-52
2023/09/23 01:53:08;;;;;;;21.57;14.35;;;;;;;18.28;89.38;99430.19;1848019;77;25355;-52
2023/09/23 01:55:33;;;;;;;19.40;14.50;;;;;;;18.26;89.77;99423.54;1848065;77;25627;-54
2023/09/23 01:58:00;;;;;;;21.75;14.20;;;;;;;18.24;89.73;99421.18;1848113;76;26181;-52
2023/09/23 02:00:28;;;;;;;26.65;14.85;;;;;;;18.25;90.08;99430.17;1848117;77;25364;-52
2023/09/23 02:02:56;;;;;;;20.85;14.33;;;;;;;18.24;90.33;99428.62;1848059;77;27472;-54
2023/09/23 02:05:27;;;;;;;17.42;14.40;;;;;;;18.22;90.57;99418.64;1848279;77;25447;-53
2023/09/23 02:07:54;;;;;;;21.95;15.05;;;;;;;18.21;90.59;99422.53;1824244;77;25449;-53
2023/09/23 02:10:26;;;;;;;27.52;14.75;;;;;;;18.21;90.87;99423.31;1848085;77;25528;-52
2023/09/23 02:12:53;;;;;;;24.18;14.75;;;;;;;18.22;90.86;99429.59;1848105;77;25587;-52
2023/09/23 02:15:20;;;;;;;24.43;15.55;;;;;;;18.22;90.97;99425.48;1848132;77;28064;-52
2023/09/23 02:17:48;;;;;;;20.68;14.00;;;;;;;18.21;91.00;99423.31;1847967;77;25631;-54
2023/09/23 02:20:22;;;;;;;23.90;14.23;;;;;;;18.22;91.23;99409.06;1848370;77;25431;-51
2023/09/23 02:22:48;;;;;;;26.80;14.93;;;;;;;18.23;91.21;99424.30;1847512;77;25584;-52
2023/09/23 02:25:16;;;;;;;20.88;15.20;;;;;;;18.24;91.42;99419.81;1841694;77;25379;-53
2023/09/23 02:27:44;;;;;;;20.20;15.30;;;;;;;18.26;91.54;99419.44;1803671;79;28036;-55
2023/09/23 02:30:12;;;;;;;18.70;14.47;;;;;;;18.27;91.47;99421.02;1838245;78;25643;-54
2023/09/23 02:32:44;;;;;;;23.42;15.03;;;;;;;18.28;91.43;99415.73;1808273;78;25407;-55
2023/09/23 02:35:13;;;;;;;22.77;14.07;;;;;;;18.24;91.20;99412.97;1838339;78;26012;-52
2023/09/23 02:37:41;;;;;;;21.73;14.45;;;;;;;18.24;91.26;99412.19;1807922;78;25534;-55
2023/09/23 02:40:14;;;;;;;20.95;13.98;;;;;;;18.22;91.44;99411.80;1838345;78;27466;-54
2023/09/23 02:42:46;;;;;;;21.50;13.65;;;;;;;18.19;91.16;99414.70;1809053;78;27435;-53
2023/09/23 02:45:15;;;;;;;19.30;14.03;;;;;;;18.19;91.08;99416.66;1838334;78;25392;-55
2023/09/23 02:47:43;;;;;;;21.23;15.40;;;;;;;18.15;91.51;99413.91;1838426;78;25553;-55
2023/09/23 02:50:12;;;;;;;19.40;14.10;;;;;;;18.12;91.52;99407.82;1838505;78;25391;-55
2023/09/23 02:52:41;;;;;;;19.07;13.83;;;;;;;18.09;91.80;99409.35;1838379;78;27481;-56
2023/09/23 02:55:14;;;;;;;22.87;14.07;;;;;;;18.05;91.49;99408.56;1837838;78;25398;-54
2023/09/23 02:57:45;;;;;;;18.70;13.53;;;;;;;18.03;91.79;99412.83;1837681;78;25391;-55
2023/09/23 03:00:17;;;;;;;22.22;14.33;;;;;;;17.99;91.71;99412.03;1837807;78;25693;-54
2023/09/23 03:02:45;;;;;;;19.52;12.78;;;;;;;17.95;91.86;99415.33;1838385;78;25452;-55
2023/09/23 03:05:16;;;;;;;26.85;14.13;;;;;;;17.93;91.99;99419.81;1838302;78;27544;-54
2023/09/23 03:07:47;;;;;;;20.90;14.30;;;;;;;17.91;92.15;99420.75;1838224;78;25560;-55
2023/09/23 03:10:13;;;;;;;21.35;14.47;;;;;;;17.89;93.07;99435.40;1838287;78;25552;-56
2023/09/23 03:12:51;;;;;;;23.25;14.15;;;;;;;17.84;92.50;99443.92;1838262;78;25575;-54
2023/09/23 03:15:14;;;;;;;23.40;13.95;;;;;;;17.81;92.88;99439.20;1808125;78;25433;-56
2023/09/23 03:17:50;;;;;;;23.25;14.10;;;;;;;17.78;93.09;99425.72;1838328;78;27439;-52
2023/09/23 03:20:14;;;;;;;20.20;13.85;;;;;;;17.79;93.04;99429.23;1838245;78;25387;-52
2023/09/23 03:22:40;;;;;;;21.23;13.85;;;;;;;17.78;93.34;99423.58;1808260;78;25443;-51
2023/09/23 03:25:08;;;;;;;20.05;13.83;;;;;;;17.78;94.01;99423.58;1838152;78;25615;-51
2023/09/23 03:27:35;;;;;;;18.77;13.70;;;;;;;17.76;93.91;99426.69;1838312;78;25663;-52
2023/09/23 03:30:03;;;;;;;24.92;14.90;;;;;;;17.75;93.77;99430.58;1838318;78;28063;-51
2023/09/23 03:32:29;;;;;;;24.27;14.50;;;;;;;17.73;93.99;99430.17;1838175;78;25587;-55
2023/09/23 03:34:56;;;;;;;26.97;14.07;;;;;;;17.73;93.89;99441.11;1838252;78;25612;-51
2023/09/23 03:37:22;;;;;;;21.25;15.08;;;;;;;17.71;94.20;99433.88;1838264;78;25605;-54
2023/09/23 03:39:48;;;;;;;29.07;14.93;;;;;;;17.71;94.75;99436.02;1838291;78;25468;-54
2023/09/23 03:42:14;;;;;;;22.73;14.25;;;;;;;17.70;94.62;99439.13;1807950;78;27529;-54
2023/09/23 03:44:43;;;;;;;24.25;13.48;;;;;;;17.73;94.48;99448.73;1807748;78;25377;-51
2023/09/23 03:47:09;;;;;;;25.85;14.60;;;;;;;17.72;94.62;99444.44;1838317;78;25436;-56
2023/09/23 03:49:35;;;;;;;23.47;14.15;;;;;;;17.72;94.72;99439.53;1838379;78;25538;-56
2023/09/23 03:52:05;;;;;;;24.20;13.80;;;;;;;17.72;94.67;99436.23;1838346;78;25401;-54
2023/09/23 03:54:29;;;;;;;28.00;14.85;;;;;;;17.72;94.82;99443.63;1838270;78;27549;-52
2023/09/23 03:56:56;;;;;;;19.62;13.20;;;;;;;17.72;95.07;99451.84;1838179;78;25427;-52
2023/09/23 03:59:22;;;;;;;20.50;13.80;;;;;;;17.72;94.97;99461.41;1838275;78;25402;-52
2023/09/23 04:01:48;;;;;;;18.42;14.30;;;;;;;17.71;95.22;99463.95;1838188;78;27727;-54
2023/09/23 04:04:14;;;;;;;25.82;15.13;;;;;;;17.70;95.12;99461.00;1838306;78;25420;-55
2023/09/23 04:06:41;;;;;;;25.23;13.98;;;;;;;17.70;95.38;99459.64;1838295;78;27486;-55
2023/09/23 04:09:09;;;;;;;18.27;13.50;;;;;;;17.68;95.51;99457.28;1838170;78;25838;-53
2023/09/23 04:11:35;;;;;;;18.55;13.48;;;;;;;17.67;95.79;99461.75;1838288;78;25383;-52
2023/09/23 04:14:01;;;;;;;25.37;14.30;;;;;;;17.67;95.75;99456.28;1838337;78;25635;-53
2023/09/23 04:16:27;;;;;;;21.75;14.18;;;;;;;17.65;96.02;99459.39;1838310;78;25527;-53
2023/09/23 04:18:53;;;;;;;18.20;13.53;;;;;;;17.65;95.82;99465.45;1838279;78;28126;-55
2023/09/23 04:21:22;;;;;;;22.07;14.10;;;;;;;17.66;96.07;99471.91;1838178;78;25615;-54
2023/09/23 04:23:52;;;;;;;26.52;14.65;;;;;;;17.67;96.36;99475.42;1838191;78;25620;-54
2023/09/23 04:26:21;;;;;;;21.37;14.70;;;;;;;17.67;96.44;99482.27;1836370;78;26102;-52
2023/09/23 04:28:51;;;;;;;26.57;14.33;;;;;;;17.66;96.44;99480.70;1836209;78;25557;-55
2023/09/23 04:31:18;;;;;;;22.27;14.23;;;;;;;17.67;97.08;99494.01;1835870;78;27662;-53
2023/09/23 04:33:46;;;;;;;25.92;14.20;;;;;;;17.66;96.75;99495.75;1835925;78;25570;-53
2023/09/23 04:36:12;;;;;;;23.42;14.00;;;;;;;17.67;96.69;99505.50;1836114;78;25529;-52
2023/09/23 04:38:38;;;;;;;21.30;14.28;;;;;;;17.67;96.96;99497.30;1836075;78;25824;-55
2023/09/23 04:41:05;;;;;;;27.40;12.85;;;;;;;17.66;97.04;99497.11;1836074;78;25370;-53
2023/09/23 04:43:31;;;;;;;23.15;15.08;;;;;;;17.68;97.17;99494.78;1836138;78;27494;-54
2023/09/23 04:45:58;;;;;;;23.35;15.08;;;;;;;17.68;97.27;99497.52;1836036;78;25724;-55
2023/09/23 04:48:24;;;;;;;18.55;15.25;;;;;;;17.69;97.37;99507.28;1836151;78;25402;-55
2023/09/23 04:50:56;;;;;;;23.35;14.53;;;;;;;17.70;97.57;99515.11;1835829;78;25501;-56
2023/09/23 04:53:22;;;;;;;19.95;14.50;;;;;;;17.69;97.56;99508.09;1836076;78;25683;-54
2023/09/23 04:55:48;;;;;;;22.60;15.28;;;;;;;17.72;97.87;99507.90;1836096;78;27503;-52
2023/09/23 04:58:14;;;;;;;20.10;15.25;;;;;;;17.73;97.85;99519.05;1836019;78;25214;-54
2023/09/23 05:00:40;;;;;;;24.77;14.98;;;;;;;17.76;97.99;99532.55;1836083;78;25430;-53
2023/09/23 05:03:08;;;;;;;23.50;16.00;;;;;;;17.78;98.29;99545.28;1836093;78;25538;-53
2023/09/23 05:05:36;;;;;;;25.08;15.50;;;;;;;17.79;98.07;99543.52;1836422;78;25379;-53
2023/09/23 05:08:05;;;;;;;23.83;14.68;;;;;;;17.80;98.22;99542.95;1836081;78;28081;-54
2023/09/23 05:10:32;;;;;;;27.98;15.78;;;;;;;17.80;98.46;99545.10;1836004;78;25607;-52
2023/09/23 05:12:58;;;;;;;23.02;15.00;;;;;;;17.81;98.86;99554.89;1810161;78;25453;-55
2023/09/23 05:15:24;;;;;;;27.52;16.97;;;;;;;17.83;98.85;99564.87;1836079;78;25503;-54
2023/09/23 05:17:54;;;;;;;23.55;16.00;;;;;;;17.83;98.76;99566.83;1836102;78;25604;-55
2023/09/23 05:20:20;;;;;;;27.10;16.30;;;;;;;17.86;99.20;99561.42;1836306;78;27456;-53
2023/09/23 05:22:46;;;;;;;22.45;15.98;;;;;;;17.88;99.02;99575.50;1835916;78;27293;-56
2023/09/23 05:25:13;;;;;;;26.75;15.93;;;;;;;17.90;98.92;99588.22;1835964;78;25546;-54
2023/09/23 05:27:41;;;;;;;27.87;16.37;;;;;;;17.92;99.15;99589.21;1836032;78;25667;-57
2023/09/23 05:30:08;;;;;;;27.55;16.55;;;;;;;17.92;99.12;99593.31;1810251;78;25620;-53
2023/09/23 05:32:37;;;;;;;27.05;16.52;;;;;;;17.94;99.04;99595.09;1775744;79;28213;-53
2023/09/23 05:35:13;;;;;;;25.68;16.75;;;;;;;17.95;99.19;99598.63;1836263;77;25860;-55
2023/09/23 05:37:37;;;;;;;25.92;17.20;;;;;;;17.95;99.00;99593.16;1834450;78;25594;-55
2023/09/23 05:40:27;;;;;;;24.70;17.37;;;;;;;17.98;99.34;99594.56;1835996;78;25605;-55
2023/09/23 05:42:55;;;;;;;24.12;17.65;;;;;;;18.00;99.42;99591.45;1836020;78;25622;-52
2023/09/23 05:45:25;;;;;;;30.60;18.92;;;;;;;18.05;99.69;99589.73;1836019;78;27627;-51
2023/09/23 05:47:52;;;;;;;31.00;19.27;;;;;;;18.08;99.50;99588.96;1835903;78;25813;-52
2023/09/23 05:50:20;;;;;;;29.85;20.20;;;;;;;18.11;99.54;99590.95;1836007;78;25391;-51
2023/09/23 05:52:47;;;;;;;31.50;20.48;;;;;;;18.12;99.26;99596.64;1835963;78;25418;-52
2023/09/23 05:55:14;;;;;;;34.33;24.52;;;;;;;18.12;99.28;99593.91;1836050;78;25378;-56
2023/09/23 05:57:41;;;;;;;34.43;24.57;;;;;;;18.13;99.68;99598.78;1835993;78;27540;-52
2023/09/23 06:00:11;;;;;;;36.55;27.32;;;;;;;18.13;99.58;99609.14;1835925;78;25604;-55
2023/09/23 06:02:39;;;;;;;40.55;29.60;;;;;;;18.12;99.09;99624.01;1835723;78;25394;-55
2023/09/23 06:05:06;;;;;;;40.43;30.35;;;;;;;18.10;98.84;99627.12;1835962;78;25733;-55
2023/09/23 06:07:33;;;;;;;36.68;28.15;;;;;;;18.10;98.92;99637.28;1836040;78;25404;-55
2023/09/23 06:10:00;;;;;;;36.42;28.40;;;;;;;18.08;98.51;99642.33;1836015;78;28033;-53
2023/09/23 06:12:31;;;;;;;40.65;30.62;;;;;;;18.10;98.69;99644.13;1835875;78;25614;-56
2023/09/23 06:15:01;;;;;;;36.42;28.73;;;;;;;18.15;99.40;99649.26;1836021;78;25397;-53
2023/09/23 06:17:28;;;;;;;46.68;30.88;;;;;;;18.18;99.08;99648.48;1835993;78;25456;-53
2023/09/23 06:19:57;;;;;;;43.65;30.75;;;;;;;18.24;99.54;99652.47;1836017;78;25447;-53
2023/09/23 06:22:23;;;;;;;40.40;28.50;;;;;;;18.28;99.40;99649.17;1835903;78;29691;-52
2023/09/23 06:24:50;;;;;;;41.65;29.70;;;;;;;18.32;99.25;99668.39;1835879;78;25375;-55
2023/09/23 06:27:17;;;;;;;40.48;28.92;;;;;;;18.32;98.29;99686.19;1835922;78;25607;-60
2023/09/23 06:29:45;;;;;;;37.93;25.92;;;;;;;18.31;97.99;99694.18;1835882;78;25477;-59
2023/09/23 06:32:12;;;;;;;35.28;25.23;;;;;;;18.31;97.71;99702.39;1835976;78;25369;-59
2023/09/23 06:34:39;;;;;;;34.48;24.47;;;;;;;18.29;97.42;99705.50;1835998;78;27184;-59
2023/09/23 06:37:05;;;;;;;27.82;23.27;;;;;;;18.25;96.59;99704.69;1835850;78;25829;-59
2023/09/23 06:39:32;;;;;;;29.42;23.80;;;;;;;18.23;96.65;99696.63;1835973;78;25542;-59
2023/09/23 06:41:58;;;;;;;28.38;22.95;;;;;;;18.18;96.14;99695.60;1835909;78;25550;-59
2023/09/23 06:44:24;;;;;;;30.70;23.42;;;;;;;18.15;96.03;99699.89;1836021;78;25392;-59
2023/09/23 06:46:51;;;;;;;27.35;22.40;;;;;;;18.10;95.83;99698.27;1835993;78;27534;-57
2023/09/23 06:49:18;;;;;;;28.10;21.40;;;;;;;18.11;95.94;99701.78;1835899;78;25438;-61
2023/09/23 06:51:45;;;;;;;28.83;20.57;;;;;;;18.11;96.07;99711.36;1835966;78;25577;-60
2023/09/23 06:54:11;;;;;;;28.10;21.10;;;;;;;18.08;95.70;99717.02;1835844;78;25547;-62
2023/09/23 06:56:37;;;;;;;24.55;21.37;;;;;;;18.04;94.79;99723.59;1835962;78;25544;-62
2023/09/23 06:59:04;;;;;;;27.37;21.55;;;;;;;17.98;94.40;99723.71;1835968;78;27920;-61
2023/09/23 07:01:30;;;;;;;27.42;21.48;;;;;;;17.94;94.49;99729.73;1835805;78;25872;-62
2023/09/23 07:03:56;;;;;;;31.48;20.97;;;;;;;17.87;94.04;99738.05;1835955;78;25521;-61
2023/09/23 07:06:23;;;;;;;30.10;21.33;;;;;;;17.83;94.10;99741.30;1835875;78;25478;-62
2023/09/23 07:08:49;;;;;;;31.68;21.57;;;;;;;17.77;94.05;99749.61;1835991;78;25447;-61
2023/09/23 07:11:16;;;;;;;31.07;21.65;;;;;;;17.73;94.15;99765.20;1835961;78;27438;-60
2023/09/23 07:13:44;;;;;;;30.27;21.73;;;;;;;17.68;94.19;99755.95;1809940;78;25436;-61
2023/09/23 07:16:14;;;;;;;31.50;23.25;;;;;;;17.69;94.65;99767.08;1836027;78;25383;-62
2023/09/23 07:18:41;;;;;;;29.45;21.87;;;;;;;17.67;94.52;99779.78;1835920;78;25543;-60
2023/09/23 07:21:08;;;;;;;30.35;21.35;;;;;;;17.64;94.42;99786.55;1835943;78;25440;-62
2023/09/23 07:23:36;;;;;;;32.48;21.15;;;;;;;17.68;95.03;99788.77;1835911;78;28125;-62
2023/09/23 07:26:02;;;;;;;29.57;20.65;;;;;;;17.71;95.07;99779.83;1836570;78;25380;-62
2023/09/23 07:28:29;;;;;;;29.75;20.85;;;;;;;17.72;94.65;99790.96;1808175;78;25504;-62
2023/09/23 07:30:56;;;;;;;26.60;19.45;;;;;;;17.70;94.29;99798.16;1838245;78;25596;-60
2023/09/23 07:33:23;;;;;;;23.02;18.50;;;;;;;17.69;94.10;99806.18;1838295;78;25565;-61
2023/09/23 07:35:49;;;;;;;26.30;19.07;;;;;;;17.69;94.52;99815.75;1838282;78;27462;-62
2023/09/23 07:38:15;;;;;;;26.05;18.07;;;;;;;17.72;94.87;99821.86;1838178;78;25636;-62
2023/09/23 07:40:42;;;;;;;23.15;16.93;;;;;;;17.77;94.81;99824.83;1838282;78;25524;-62
2023/09/23 07:43:08;;;;;;;27.73;17.67;;;;;;;17.80;94.65;99832.89;1838259;78;25579;-61
2023/09/23 07:45:34;;;;;;;19.00;15.50;;;;;;;17.84;95.11;99823.59;1838267;78;25470;-61
2023/09/23 07:48:02;;;;;;;16.40;13.98;;;;;;;17.88;94.76;99819.56;1838302;78;27595;-62
2023/09/23 07:50:29;;;;;;;17.27;12.47;;;;;;;17.92;94.53;99805.34;1838200;78;25529;-62
2023/09/23 07:52:55;;;;;;;13.50;12.03;;;;;;;17.90;93.59;99807.66;1838215;78;25451;-63
2023/09/23 07:55:21;;;;;;;13.45;10.58;;;;;;;17.92;93.93;99819.02;1838216;78;25576;-62
2023/09/23 07:57:48;;;;;;;15.40;10.75;;;;;;;17.93;93.28;99827.45;1838265;78;25545;-62
2023/09/23 08:00:14;;;;;;;14.07;9.85;;;;;;;17.90;92.85;99827.59;1838275;78;28113;-60
2023/09/23 08:02:40;;;;;;;10.48;8.60;;;;;;;17.89;93.06;99825.22;1807989;78;25487;-60
2023/09/23 08:05:08;;;;;;;15.48;9.18;;;;;;;17.90;93.06;99819.97;1838277;78;25506;-61
2023/09/23 08:07:35;;;;;;;11.10;9.58;;;;;;;17.95;93.80;99810.08;1838505;78;25479;-61
2023/09/23 08:10:03;;;;;;;13.85;8.63;;;;;;;18.01;94.08;99814.64;1838232;78;25402;-60
2023/09/23 08:12:35;;;;;;;10.53;8.13;;;;;;;18.09;94.58;99825.30;1838493;78;27717;-61
2023/09/23 08:15:05;;;;;;;7.47;6.05;;;;;;;18.20;94.50;99841.07;1838249;78;25600;-62
2023/09/23 08:17:31;;;;;;;8.08;6.55;;;;;;;18.23;94.12;99830.75;1838279;78;25403;-58
2023/09/23 08:19:58;;;;;;;9.28;7.10;;;;;;;18.29;93.74;99839.64;1838192;78;25601;-58
2023/09/23 08:22:25;;;;;;;7.60;6.47;;;;;;;18.39;94.09;99840.13;1838262;78;25391;-61
2023/09/23 08:24:51;;;;;;;8.08;5.97;;;;;;;18.46;93.90;99834.77;1838259;78;27732;-61
2023/09/23 08:27:18;;;;;;;7.90;7.05;;;;;;;18.56;93.68;99824.51;1836376;78;26114;-60
2023/09/23 08:29:44;;;;;;;7.15;5.65;;;;;;;18.64;93.91;99824.80;1835889;78;25537;-61
2023/09/23 08:32:11;;;;;;;8.95;5.83;;;;;;;18.77;93.87;99829.41;1836050;78;26185;-55
2023/09/23 08:34:38;;;;;;;9.68;7.10;;;;;;;18.87;93.05;99849.13;1836116;78;25548;-59
2023/09/23 08:37:04;;;;;;;5.58;5.08;;;;;;;18.96;92.55;99854.48;1836253;78;27498;-58
2023/09/23 08:39:31;;;;;;;6.08;4.10;;;;;;;19.00;91.16;99864.92;1835844;78;25556;-58
2023/09/23 08:41:59;;;;;;;5.55;4.95;;;;;;;19.01;90.29;99880.18;1835921;78;25459;-56
2023/09/23 08:44:29;;;;;;;6.43;5.03;;;;;;;19.01;89.79;99892.52;1836124;78;25550;-58
2023/09/23 08:46:56;;;;;;;7.30;5.53;;;;;;;19.09;88.95;99911.80;1810197;78;25551;-58
2023/09/23 08:49:24;;;;;;;5.25;4.85;;;;;;;18.95;88.65;99880.89;1835918;78;27445;-54
2023/09/23 08:51:55;;;;;;;6.15;4.53;;;;;;;18.96;88.39;99876.41;1835819;78;25548;-59
2023/09/23 08:54:23;;;;;;;12.03;9.80;;;;;;;18.95;88.21;99880.34;1835883;78;25371;-53
2023/09/23 08:56:50;;;;;;;7.77;6.30;;;;;;;18.96;88.26;99888.75;1836160;78;25578;-57
2023/09/23 08:59:16;;;;;;;9.75;7.05;;;;;;;18.93;87.94;99886.75;1835884;78;25740;-55
2023/09/23 09:01:44;;;;;;;7.75;7.05;;;;;;;18.93;87.64;99884.60;1835897;78;27465;-58
2023/09/23 09:04:16;;;;;;;5.62;5.12;;;;;;;18.90;87.54;99880.67;1835800;78;25706;-55
2023/09/23 09:06:52;;;;;;;7.50;5.72;;;;;;;18.91;87.72;99891.82;1835891;78;25602;-54
2023/09/23 09:09:19;;;;;;;28.35;25.25;;;;;;;18.92;87.53;99898.89;1835870;78;25643;-57
2023/09/23 09:11:52;;;;;;;13.13;11.65;;;;;;;18.93;87.58;99901.82;1835867;78;25396;-57
2023/09/23 09:14:18;;;;;;;6.50;5.85;;;;;;;18.93;87.15;99896.93;1835883;78;27547;-59
2023/09/23 09:16:46;;;;;;;5.03;4.40;;;;;;;18.92;86.79;99899.48;1809985;78;25457;-53
2023/09/23 09:19:12;;;;;;;5.03;4.47;;;;;;;18.89;86.62;99902.97;1835965;78;25560;-56
2023/09/23 09:21:39;;;;;;;9.85;5.72;;;;;;;18.88;86.68;99909.01;1810001;78;25599;-57
2023/09/23 09:24:08;;;;;;;10.03;6.45;;;;;;;18.86;86.82;99901.75;1836064;78;25445;-62
2023/09/23 09:26:35;;;;;;;5.40;4.90;;;;;;;18.91;87.15;99893.19;1833096;78;28012;-62
2023/09/23 09:29:03;;;;;;;6.08;5.15;;;;;;;18.98;87.26;99882.89;1838401;78;25534;-64
2023/09/23 09:31:34;;;;;;;6.55;5.15;;;;;;;19.10;87.96;99895.55;1838362;78;25547;-64
2023/09/23 09:34:11;;;;;;;6.45;5.83;;;;;;;19.19;87.75;99898.78;1837794;78;25564;-62
2023/09/23 09:36:59;;;;;;;5.53;5.03;;;;;;;19.30;88.14;99906.51;1586083;90;25464;-63
2023/09/23 09:39:32;;;;;;;5.12;4.72;;;;;;;19.36;87.22;99909.71;1585860;89;28168;-63
2023/09/23 09:42:02;;;;;;;7.25;4.70;;;;;;;19.46;86.65;99910.95;1585838;90;25718;-62
2023/09/23 09:44:30;;;;;;;5.20;4.72;;;;;;;19.51;86.45;99910.05;1585881;90;25789;-61
2023/09/23 09:47:00;;;;;;;7.70;4.83;;;;;;;19.56;85.80;99915.73;1585833;90;25548;-61
2023/09/23 09:49:27;;;;;;;4.58;4.20;;;;;;;19.60;85.67;99917.36;1586010;90;25736;-63
2023/09/23 09:51:53;;;;;;;4.47;3.52;;;;;;;19.69;85.18;99926.63;1585831;90;28134;-60
2023/09/23 09:54:25;;;;;;;2.42;2.33;;;;;;;19.72;84.67;99930.00;1585767;90;25764;-64
2023/09/23 09:56:55;;;;;;;3.10;2.77;;;;;;;19.73;83.21;99934.33;1585843;90;25498;-60
2023/09/23 09:59:29;;;;;;;4.60;2.65;;;;;;;19.70;83.23;99927.41;1585681;90;25641;-64
2023/09/23 10:01:57;;;;;;;5.65;2.55;;;;;;;19.73;83.63;99945.86;1627974;87;25739;-63
2023/09/23 10:04:29;;;;;;;3.05;2.02;;;;;;;19.77;83.21;99955.74;1608716;89;28165;-62
2023/09/23 10:06:56;;;;;;;2.87;2.27;;;;;;;19.80;83.01;99954.17;1608632;89;25461;-62
2023/09/23 10:09:31;;;;;;;2.65;2.45;;;;;;;19.84;83.00;99955.61;1608713;89;25598;-64
2023/09/23 10:11:59;;;;;;;2.20;2.00;;;;;;;19.86;82.78;99959.53;1608687;89;25611;-54
2023/09/23 10:14:26;;;;;;;2.00;1.87;;;;;;;19.91;82.97;99966.04;1608886;89;25461;-60
2023/09/23 10:16:59;;;;;;;3.17;1.82;;;;;;;19.96;82.61;99966.28;1608681;89;27528;-56
2023/09/23 10:19:41;;;;;;;15.75;14.13;;;;;;;19.97;81.73;99976.07;1585166;89;25605;-54
2023/09/23 10:22:18;;;;;;;3.27;2.12;;;;;;;19.97;81.51;99981.56;1607868;89;25744;-55
2023/09/23 10:24:43;;;;;;;4.42;2.30;;;;;;;20.00;81.46;99982.77;1584937;89;25726;-54
2023/09/23 10:27:11;;;;;;;3.62;1.90;;;;;;;19.99;80.82;99991.60;1585610;89;25463;-56
2023/09/23 10:29:47;;;;;;;2.50;2.00;;;;;;;19.99;80.90;99988.86;1608713;89;27526;-57
2023/09/23 10:32:16;;;;;;;36.75;32.88;;;;;;;19.99;80.75;99978.44;1608653;89;25820;-58
2023/09/23 10:34:55;;;;;;;6.90;4.83;;;;;;;20.00;80.72;99978.66;1609239;87;25663;-51
2023/09/23 10:37:34;;;;;;;2.52;2.02;;;;;;;20.00;80.91;99982.77;1640522;87;33667;-52
2023/09/23 10:40:17;;;;;;;2.35;2.00;;;;;;;20.02;81.13;99978.46;1637938;87;25653;-51
2023/09/23 10:42:35;;;;;;;2.22;2.02;;;;;;;20.03;81.40;99981.42;1612609;87;27564;-51
2023/09/23 10:45:03;;;;;;;2.50;1.90;;;;;;;20.06;81.56;99975.17;1637717;87;25590;-52
2023/09/23 10:47:29;;;;;;;10.20;5.33;;;;;;;20.11;81.79;99973.45;1637824;87;25500;-53
2023/09/23 10:49:56;;;;;;;9.30;4.92;;;;;;;20.17;81.99;99970.34;1637778;87;26195;-52
2023/09/23 10:52:23;;;;;;;2.52;2.08;;;;;;;20.23;82.61;99972.36;1637840;87;25653;-52
2023/09/23 10:54:49;;;;;;;3.10;1.72;;;;;;;20.28;81.87;99984.35;1637765;87;27563;-52
2023/09/23 10:57:15;;;;;;;2.33;2.12;;;;;;;20.31;81.51;99995.14;1637731;87;25717;-54
2023/09/23 10:59:44;;;;;;;2.70;2.45;;;;;;;20.30;81.76;100002.60;1637807;87;25509;-63
2023/09/23 11:02:11;;;;;;;2.35;1.77;;;;;;;20.31;81.63;99999.27;1637758;87;25629;-58
2023/09/23 11:04:37;;;;;;;2.27;1.77;;;;;;;20.32;81.83;99997.51;1637862;87;25434;-60
2023/09/23 11:07:06;;;;;;;2.60;2.40;;;;;;;20.33;82.17;99996.94;1637793;87;27480;-58
2023/09/23 11:09:32;;;;;;;1.85;1.65;;;;;;;20.37;82.13;99995.00;1637696;87;25772;-54
2023/09/23 11:12:15;;;;;;;5.60;2.00;;;;;;;20.39;81.83;99993.24;1633660;87;25509;-53
2023/09/23 11:14:48;;;;;;;3.08;1.90;;;;;;;20.39;81.30;100002.27;1637785;87;26101;-56
2023/09/23 11:17:29;;;;;;;2.72;2.33;;;;;;;20.39;82.02;100003.64;1637804;87;25594;-57
2023/09/23 11:19:58;;;;;;;3.58;2.33;;;;;;;20.44;82.18;100006.02;1637812;87;28126;-58
2023/09/23 11:22:27;;;;;;;3.33;1.90;;;;;;;20.48;82.08;100008.22;1637928;87;25613;-57
2023/09/23 11:24:54;;;;;;;;;;;;;;;20.51;82.15;100015.67;1640130;87;25496;-56
2023/09/23 11:27:24;;;;;;;6.62;2.10;;;;;;;20.55;81.66;100024.53;1637778;87;25605;-62